createdAt,value
2018-09-14T00:03:55.772Z,0.95
2018-09-14T00:08:59.051Z,1.00
2018-09-14T00:14:02.333Z,0.75
2018-09-14T00:19:05.898Z,0.88
2018-09-14T00:24:09.170Z,0.90
2018-09-14T00:29:12.450Z,0.82
2018-09-14T00:34:15.731Z,0.78
2018-09-14T00:39:19.033Z,0.90
2018-09-14T00:44:22.434Z,0.62
2018-09-14T00:49:25.714Z,0.75
2018-09-14T00:54:29.035Z,0.98
2018-09-14T00:59:32.311Z,0.80
2018-09-14T01:04:35.593Z,0.90
2018-09-14T01:09:38.875Z,0.90
2018-09-14T01:14:42.158Z,0.72
2018-09-14T01:19:45.443Z,0.70
2018-09-14T01:24:48.734Z,0.80
2018-09-14T01:29:52.014Z,0.88
2018-09-14T01:34:55.307Z,0.80
2018-09-14T01:39:58.581Z,1.22
2018-09-14T01:45:01.883Z,0.80
2018-09-14T01:50:06.474Z,0.72
2018-09-14T01:55:09.775Z,0.80
2018-09-14T02:00:13.053Z,0.70
2018-09-14T02:05:16.327Z,0.68
2018-09-14T02:10:23.163Z,0.87
2018-09-14T02:15:26.470Z,0.90
2018-09-14T02:20:29.786Z,0.98
2018-09-14T02:25:33.129Z,0.88
2018-09-14T02:30:36.445Z,1.25
2018-09-14T02:35:39.774Z,0.90
2018-09-14T02:40:43.095Z,1.15
2018-09-14T02:45:46.406Z,0.90
2018-09-14T02:50:49.715Z,0.82
2018-09-14T02:55:53.018Z,1.07
2018-09-14T03:00:56.314Z,0.90
2018-09-14T03:05:59.619Z,0.70
2018-09-14T03:11:02.946Z,0.75
2018-09-14T03:16:06.247Z,0.70
2018-09-14T03:21:09.555Z,1.00
2018-09-14T03:26:13.028Z,0.65
2018-09-14T03:31:16.358Z,0.90
2018-09-14T03:36:19.672Z,0.80
2018-09-14T03:41:23.154Z,1.05
2018-09-14T03:46:26.447Z,0.72
2018-09-14T03:51:29.750Z,1.02
2018-09-14T03:56:33.046Z,1.00
2018-09-14T04:01:36.362Z,0.80
2018-09-14T04:06:39.677Z,1.02
2018-09-14T04:11:43.035Z,1.22
2018-09-14T04:16:46.343Z,1.20
2018-09-14T04:21:49.647Z,1.65
2018-09-14T04:26:52.957Z,1.00
2018-09-14T04:31:56.254Z,1.45
2018-09-14T04:36:59.546Z,1.20
2018-09-14T04:42:02.842Z,1.40
2018-09-14T04:47:06.373Z,1.70
2018-09-14T04:52:09.709Z,1.40
2018-09-14T04:57:13.057Z,2.05
2018-09-14T05:02:16.370Z,1.72
2018-09-14T05:07:19.641Z,1.90
2018-09-14T05:12:22.940Z,1.77
2018-09-14T05:17:26.252Z,2.20
2018-09-14T05:22:29.526Z,2.47
2018-09-14T05:27:32.815Z,1.57
2018-09-14T05:32:36.100Z,1.90
2018-09-14T05:37:39.394Z,2.52
2018-09-14T05:42:42.669Z,2.10
2018-09-14T05:47:45.972Z,2.30
2018-09-14T05:52:49.247Z,2.45
2018-09-14T05:57:52.576Z,2.67
2018-09-14T06:02:55.926Z,2.83
2018-09-14T06:07:59.170Z,2.65
2018-09-14T06:13:02.486Z,2.45
2018-09-14T06:18:05.766Z,2.37
2018-09-14T06:23:09.174Z,2.52
2018-09-14T06:28:12.382Z,2.80
2018-09-14T06:33:15.677Z,3.15
2018-09-14T06:38:19.025Z,2.58
2018-09-14T06:43:22.348Z,2.85
2018-09-14T06:48:26.419Z,2.12
2018-09-14T06:53:29.752Z,2.60
2018-09-14T06:58:33.063Z,3.75
2018-09-14T07:03:36.378Z,6.37
2018-09-14T07:08:39.690Z,6.20
2018-09-14T07:13:43.027Z,6.28
2018-09-14T07:18:46.618Z,5.70
2018-09-14T07:23:49.921Z,5.10
2018-09-14T07:28:53.277Z,7.20
2018-09-14T07:33:56.584Z,7.12
2018-09-14T07:38:59.894Z,6.78
2018-09-14T07:44:03.195Z,7.78
2018-09-14T07:49:06.618Z,7.37
2018-09-14T07:54:09.931Z,6.30
2018-09-14T07:59:13.254Z,6.83
2018-09-14T08:04:16.558Z,6.30
2018-09-14T08:09:19.899Z,7.67
2018-09-14T08:14:23.214Z,7.65
2018-09-14T08:19:26.523Z,6.62
2018-09-14T08:24:29.826Z,7.67
2018-09-14T08:29:33.137Z,6.55
2018-09-14T08:34:36.450Z,7.30
2018-09-14T08:39:39.749Z,6.63
2018-09-14T08:44:43.059Z,7.58
2018-09-14T08:49:46.366Z,8.35
2018-09-14T08:54:49.683Z,7.15
2018-09-14T08:59:52.997Z,7.83
2018-09-14T09:04:56.312Z,9.07
2018-09-14T09:09:59.632Z,9.17
2018-09-14T09:15:03.044Z,8.68
2018-09-14T09:20:06.595Z,8.18
2018-09-14T09:25:09.907Z,8.20
2018-09-14T09:30:13.215Z,8.15
2018-09-14T09:35:16.514Z,7.62
2018-09-14T09:40:19.822Z,7.27
2018-09-14T09:45:23.126Z,6.28
2018-09-14T09:50:26.451Z,5.92
2018-09-14T09:55:29.758Z,4.83
2018-09-14T10:00:38.494Z,5.13
2018-09-14T10:05:47.110Z,4.85
2018-09-14T10:10:50.540Z,4.72
2018-09-14T10:15:53.903Z,4.58
2018-09-14T10:20:57.233Z,4.35
2018-09-14T10:26:00.514Z,4.35
2018-09-14T10:31:03.858Z,3.87
2018-09-14T10:36:07.158Z,3.70
2018-09-14T10:41:10.438Z,3.25
2018-09-14T10:46:13.719Z,3.95
2018-09-14T10:51:17.023Z,3.75
2018-09-14T10:56:20.395Z,3.08
2018-09-14T11:01:23.701Z,3.30
2018-09-14T11:06:27.180Z,2.75
2018-09-14T11:11:30.458Z,2.33
2018-09-14T11:16:33.810Z,2.75
2018-09-14T11:21:37.129Z,2.50
2018-09-14T11:26:40.550Z,2.35
2018-09-14T11:31:43.875Z,2.77
2018-09-14T11:36:47.165Z,3.12
2018-09-14T11:41:50.459Z,2.17
2018-09-14T11:46:53.803Z,3.27
2018-09-14T11:51:57.094Z,2.75
2018-09-14T11:57:00.379Z,2.30
2018-09-14T12:02:03.712Z,1.85
2018-09-14T12:07:06.998Z,2.17
2018-09-14T12:12:10.747Z,1.98
2018-09-14T12:17:14.120Z,2.00
2018-09-14T12:22:17.458Z,2.08
2018-09-14T12:27:20.809Z,2.05
2018-09-14T12:32:24.146Z,2.35
2018-09-14T12:37:27.477Z,1.67
2018-09-14T12:42:30.776Z,1.92
2018-09-14T12:47:34.053Z,2.33
2018-09-14T12:52:37.547Z,2.17
2018-09-14T12:57:40.914Z,2.40
2018-09-14T13:02:44.283Z,1.67
2018-09-14T13:07:48.301Z,2.30
2018-09-14T13:12:51.869Z,2.08
2018-09-14T13:17:55.316Z,2.27
2018-09-14T13:22:59.002Z,2.35
2018-09-14T13:28:02.440Z,1.87
2018-09-14T13:33:05.754Z,1.98
2018-09-14T13:38:09.068Z,2.15
2018-09-14T13:43:12.391Z,2.10
2018-09-14T13:48:15.891Z,2.08
2018-09-14T13:53:19.286Z,2.17
2018-09-14T13:58:22.647Z,2.90
2018-09-14T14:03:25.930Z,2.10
2018-09-14T14:08:29.218Z,2.17
2018-09-14T14:13:32.506Z,2.10
2018-09-14T14:18:36.815Z,2.12
2018-09-14T14:23:40.108Z,2.22
2018-09-14T14:28:43.582Z,2.20
2018-09-14T14:33:46.896Z,3.83
2018-09-14T14:38:50.186Z,3.15
2018-09-14T14:43:54.430Z,3.08
2018-09-14T14:48:57.731Z,2.85
2018-09-14T14:54:01.044Z,2.17
2018-09-14T14:59:04.599Z,2.25
2018-09-14T15:04:08.011Z,2.22
2018-09-14T15:09:11.615Z,2.00
2018-09-14T15:14:14.996Z,2.10
2018-09-14T15:19:18.430Z,2.50
2018-09-14T15:24:21.703Z,1.90
2018-09-14T15:29:24.986Z,2.10
2018-09-14T15:34:28.424Z,2.10
2018-09-14T15:39:31.714Z,2.02
2018-09-14T15:44:35.014Z,2.35
2018-09-14T15:49:38.314Z,2.30
2018-09-14T15:54:41.621Z,2.10
2018-09-14T15:59:44.975Z,2.17
2018-09-14T16:04:48.281Z,2.47
2018-09-14T16:09:51.597Z,1.92
2018-09-14T16:14:54.878Z,1.90
2018-09-14T16:19:58.187Z,1.72
2018-09-14T16:25:01.484Z,2.27
2018-09-14T16:30:05.337Z,2.00
2018-09-14T16:35:08.859Z,2.35
2018-09-14T16:40:12.142Z,1.92
2018-09-14T16:45:15.445Z,1.90
2018-09-14T16:50:18.746Z,2.10
2018-09-14T16:55:22.034Z,1.90
2018-09-14T17:00:25.331Z,2.67
2018-09-14T17:05:28.780Z,2.25
2018-09-14T17:10:32.098Z,2.30
2018-09-14T17:15:35.382Z,2.47
2018-09-14T17:20:38.691Z,2.33
2018-09-14T17:25:41.966Z,2.25
2018-09-14T17:30:45.274Z,2.42
2018-09-14T17:35:48.579Z,3.08
2018-09-14T17:40:51.870Z,2.58
2018-09-14T17:45:55.168Z,2.92
2018-09-14T17:50:58.451Z,3.02
2018-09-14T17:56:01.763Z,2.90
2018-09-14T18:01:05.067Z,3.00
2018-09-14T18:06:08.346Z,3.27
2018-09-14T18:11:11.726Z,3.05
2018-09-14T18:16:15.060Z,2.72
2018-09-14T18:21:18.419Z,2.47
2018-09-14T18:26:21.807Z,3.27
2018-09-14T18:31:25.119Z,3.20
2018-09-14T18:36:28.483Z,3.42
2018-09-14T18:41:31.818Z,3.65
2018-09-14T18:46:35.240Z,3.52
2018-09-14T18:51:38.530Z,3.55
2018-09-14T18:56:41.810Z,3.70
2018-09-14T19:01:45.123Z,3.95
2018-09-14T19:06:48.423Z,3.83
2018-09-14T19:11:51.793Z,3.65
2018-09-14T19:16:55.398Z,3.62
2018-09-14T19:21:58.690Z,3.98
2018-09-14T19:27:01.981Z,3.60
2018-09-14T19:32:05.262Z,3.58
2018-09-14T19:37:08.558Z,3.95
2018-09-14T19:42:11.833Z,4.53
2018-09-14T19:47:15.115Z,5.35
2018-09-14T19:52:18.638Z,6.20
2018-09-14T19:57:21.939Z,5.65
2018-09-14T20:02:25.271Z,5.92
2018-09-14T20:07:28.550Z,5.72
2018-09-14T20:12:31.837Z,5.60
2018-09-14T20:17:35.595Z,6.67
2018-09-14T20:22:38.979Z,6.42
2018-09-14T20:27:42.270Z,6.00
2018-09-14T20:32:45.578Z,5.42
2018-09-14T20:37:48.866Z,5.28
2018-09-14T20:42:52.159Z,5.00
2018-09-14T20:47:55.506Z,5.42
2018-09-14T20:52:58.819Z,5.60
2018-09-14T20:58:02.159Z,6.45
2018-09-14T21:03:05.518Z,5.97
2018-09-14T21:08:08.815Z,5.95
2018-09-14T21:13:12.134Z,6.00
2018-09-14T21:18:15.447Z,5.40
2018-09-14T21:23:18.757Z,5.28
2018-09-14T21:28:22.067Z,5.20
2018-09-14T21:33:25.405Z,5.10
2018-09-14T21:38:28.789Z,3.90
2018-09-14T21:43:32.098Z,3.83
2018-09-14T21:48:35.606Z,3.83
2018-09-14T21:53:38.958Z,3.80
2018-09-14T21:58:42.394Z,3.40
2018-09-14T22:03:45.703Z,3.70
2018-09-14T22:08:49.010Z,3.42
2018-09-14T22:13:52.737Z,3.58
2018-09-14T22:18:56.048Z,3.47
2018-09-14T22:23:59.349Z,3.92
2018-09-14T22:29:02.676Z,3.55
2018-09-14T22:34:05.986Z,3.35
2018-09-14T22:39:10.934Z,3.20
2018-09-14T22:44:14.287Z,3.70
2018-09-14T22:49:17.590Z,3.12
2018-09-14T22:54:21.214Z,3.33
2018-09-14T22:59:24.855Z,3.10
2018-09-14T23:04:28.179Z,3.20
2018-09-14T23:09:31.486Z,2.65
2018-09-14T23:14:34.785Z,3.02
2018-09-14T23:19:38.081Z,2.75
2018-09-14T23:24:41.389Z,3.17
2018-09-14T23:29:44.694Z,2.83
2018-09-14T23:34:48.050Z,2.90
2018-09-14T23:39:51.346Z,2.87
2018-09-14T23:44:54.695Z,2.98
2018-09-14T23:49:57.994Z,3.55
2018-09-14T23:55:01.290Z,3.33
